Time;durP1;ratioP1;P1;durP2;ratioP2;P2;SDS_P1;SDS_P2;PMS_P1;PMS_P2;Temp;Humidity;BMP_temperature;BMP_pressure;BME280_temperature;BME280_humidity;BME280_pressure;Samples;Min_cycle;Max_cycle;Signal;HPM_P1;HPM_P2
2023/01/27 13:44:17;;;;;;;13.50;4.53;;;26.10;66.30;;;;;;5100995;27;20799;-55
2023/01/27 13:46:44;;;;;;;14.90;4.40;;;26.50;65.40;;;;;;5101348;28;20033;-56
2023/01/27 13:49:35;;;;;;;16.20;4.60;;;26.60;65.20;;;;;;5101238;28;20029;-55
2023/01/27 13:52:04;;;;;;;17.10;4.53;;;26.60;65.20;;;;;;5101272;28;20042;-56
2023/01/27 13:54:31;;;;;;;12.32;5.25;;;26.70;65.00;;;;;;5101660;28;20307;-57
2023/01/27 13:57:03;;;;;;;12.45;4.70;;;26.70;65.00;;;;;;5101351;28;20048;-55
2023/01/27 13:59:40;;;;;;;;;;;26.80;64.90;;;;;;5101396;28;20020;-55
2023/01/27 14:02:42;;;;;;;14.10;5.13;;;26.80;65.20;;;;;;5100704;28;19911;-55
2023/01/27 14:05:27;;;;;;;13.27;5.07;;;26.80;65.00;;;;;;5100901;28;20032;-55
2023/01/27 14:08:09;;;;;;;12.70;4.90;;;26.90;64.80;;;;;;5101302;28;20036;-59
2023/01/27 14:10:40;;;;;;;12.85;5.57;;;26.90;64.90;;;;;;5100767;28;20036;-57
2023/01/27 14:13:38;;;;;;;8.77;4.90;;;26.90;65.00;;;;;;5101135;28;20044;-57
2023/01/27 14:16:09;;;;;;;8.32;4.40;;;26.90;65.10;;;;;;5100647;28;20031;-57
2023/01/27 14:19:00;;;;;;;9.17;5.40;;;27.00;65.20;;;;;;5100718;28;20028;-57
2023/01/27 14:21:59;;;;;;;12.38;5.32;;;27.00;65.40;;;;;;5072038;28;20308;-60
2023/01/27 14:24:43;;;;;;;11.75;5.07;;;27.10;65.50;;;;;;5079930;28;20036;-58
2023/01/27 14:27:22;;;;;;;14.07;5.75;;;27.10;65.80;;;;;;5100661;28;20032;-57
2023/01/27 14:29:48;;;;;;;9.10;5.28;;;27.10;66.00;;;;;;5100451;28;20028;-57
2023/01/27 14:32:34;;;;;;;10.35;5.68;;;27.10;66.20;;;;;;5100486;28;20032;-57
2023/01/27 14:35:44;;;;;;;10.95;5.10;;;27.20;66.30;;;;;;5100403;28;20072;-55
2023/01/27 14:38:30;;;;;;;8.35;5.63;;;27.20;66.40;;;;;;5045894;28;20145;-56
2023/01/27 14:41:09;;;;;;;14.40;5.32;;;27.30;66.80;;;;;;5100177;28;20028;-56
2023/01/27 14:44:00;;;;;;;8.98;5.68;;;27.30;66.90;;;;;;5093768;28;20248;-56
2023/01/27 14:46:32;;;;;;;10.73;5.50;;;27.30;67.00;;;;;;5086710;28;20237;-58
2023/01/27 14:49:27;;;;;;;11.70;5.60;;;27.30;67.10;;;;;;5086796;28;20216;-58
2023/01/27 14:52:03;;;;;;;9.57;5.57;;;27.30;67.40;;;;;;5086752;28;20036;-56
2023/01/27 14:54:48;;;;;;;11.38;5.82;;;27.30;67.50;;;;;;5086488;28;20403;-53
2023/01/27 14:57:37;;;;;;;9.60;5.65;;;27.40;67.60;;;;;;5086621;28;20036;-57
2023/01/27 15:00:25;;;;;;;9.57;5.75;;;27.40;67.60;;;;;;5086213;28;20028;-57
2023/01/27 15:03:23;;;;;;;9.25;5.63;;;27.40;67.80;;;;;;5086758;28;20063;-58
2023/01/27 15:06:28;;;;;;;11.70;6.25;;;27.40;67.90;;;;;;5086308;28;20248;-62
2023/01/27 15:09:23;;;;;;;11.02;5.95;;;27.40;68.10;;;;;;5086203;28;20037;-58
2023/01/27 15:12:20;;;;;;;8.02;5.90;;;27.50;68.30;;;;;;5086219;28;20036;-54
2023/01/27 15:15:14;;;;;;;9.25;5.78;;;27.50;68.40;;;;;;5086024;28;20033;-54
2023/01/27 15:17:52;;;;;;;8.82;6.18;;;27.60;68.60;;;;;;5086330;28;20032;-52
2023/01/27 15:20:45;;;;;;;10.63;6.30;;;27.60;68.80;;;;;;5085965;28;20366;-54
2023/01/27 15:23:52;;;;;;;11.20;6.45;;;27.60;69.00;;;;;;5086246;28;20040;-56
2023/01/27 15:26:25;;;;;;;10.82;5.63;;;27.60;69.20;;;;;;5085781;28;20223;-55
2023/01/27 15:28:52;;;;;;;8.82;6.50;;;27.70;69.30;;;;;;5085867;28;20024;-63
2023/01/27 15:31:21;;;;;;;10.35;6.10;;;27.70;69.30;;;;;;5085822;28;20200;-60
2023/01/27 15:34:03;;;;;;;12.73;6.72;;;27.70;69.30;;;;;;5085990;28;20028;-60
2023/01/27 15:36:36;;;;;;;10.83;6.20;;;27.70;69.30;;;;;;5085799;28;20021;-60
2023/01/27 15:39:08;;;;;;;8.90;6.07;;;27.80;69.50;;;;;;5085604;28;20078;-60
2023/01/27 15:41:37;;;;;;;10.73;6.65;;;27.80;69.80;;;;;;5085515;28;20262;-61
2023/01/27 15:44:27;;;;;;;11.63;5.95;;;27.80;69.70;;;;;;5085451;28;20373;-61
2023/01/27 15:47:02;;;;;;;12.82;6.60;;;27.80;69.80;;;;;;5085706;28;20101;-61
2023/01/27 15:49:35;;;;;;;8.00;6.32;;;27.80;69.90;;;;;;5085362;28;20024;-61
2023/01/27 15:52:28;;;;;;;10.35;6.47;;;27.80;70.00;;;;;;5085612;28;20040;-55
2023/01/27 15:54:59;;;;;;;11.88;6.30;;;27.90;70.20;;;;;;5084504;28;20020;-56
2023/01/27 15:57:32;;;;;;;12.48;6.00;;;27.90;70.50;;;;;;5085529;28;20034;-57
2023/01/27 16:00:26;;;;;;;12.43;5.97;;;27.90;70.50;;;;;;5085116;28;20008;-59
2023/01/27 16:02:54;;;;;;;12.75;6.50;;;28.00;70.60;;;;;;5085584;28;20104;-64
2023/01/27 16:05:36;;;;;;;12.80;6.13;;;28.00;70.70;;;;;;5085397;28;20242;-64
2023/01/27 16:08:10;;;;;;;12.65;6.60;;;28.00;70.70;;;;;;5085566;28;20068;-64
2023/01/27 16:10:37;;;;;;;14.52;6.80;;;28.00;70.80;;;;;;5085270;28;20097;-64
2023/01/27 16:13:29;;;;;;;13.43;6.70;;;28.10;70.80;;;;;;5085448;28;20358;-57
2023/01/27 16:16:14;;;;;;;;;;;28.10;70.90;;;;;;5082004;28;20036;-55
2023/01/27 16:19:02;;;;;;;11.13;6.18;;;28.10;71.00;;;;;;5085088;28;20192;-54
2023/01/27 16:21:43;;;;;;;11.80;6.50;;;28.10;71.00;;;;;;5084986;28;20083;-56
2023/01/27 16:24:43;;;;;;;11.63;6.38;;;28.20;71.10;;;;;;5084612;28;20209;-58
2023/01/27 16:27:39;;;;;;;11.52;5.85;;;28.20;70.80;;;;;;5084778;28;20035;-58
2023/01/27 16:30:06;;;;;;;11.10;6.18;;;28.20;70.80;;;;;;5084583;28;20320;-58
2023/01/27 16:32:38;;;;;;;11.07;5.95;;;28.30;70.70;;;;;;5084590;28;20052;-57
2023/01/27 16:35:18;;;;;;;9.40;6.53;;;28.30;70.40;;;;;;5084542;28;20020;-55
2023/01/27 16:38:20;;;;;;;13.85;6.00;;;28.30;70.40;;;;;;5084760;28;20229;-54
2023/01/27 16:40:54;;;;;;;9.38;5.80;;;28.30;70.30;;;;;;5070881;28;20347;-54
2023/01/27 16:43:40;;;;;;;20.05;6.68;;;28.40;70.30;;;;;;5084331;28;20127;-57
2023/01/27 16:46:31;;;;;;;11.70;6.22;;;28.40;70.30;;;;;;5084170;28;20036;-56
2023/01/27 16:48:57;;;;;;;18.95;6.25;;;28.30;70.10;;;;;;5084271;28;20028;-55
2023/01/27 16:51:27;;;;;;;10.95;5.68;;;28.40;70.20;;;;;;5084313;28;20036;-56
2023/01/27 16:53:57;;;;;;;9.73;5.80;;;28.40;70.00;;;;;;5084280;28;20016;-58
2023/01/27 16:56:31;;;;;;;8.43;6.03;;;28.40;69.90;;;;;;5084211;28;20028;-56
2023/01/27 16:59:16;;;;;;;9.27;5.97;;;28.40;69.70;;;;;;5083944;28;20054;-58
2023/01/27 17:01:51;;;;;;;9.77;6.28;;;28.40;69.70;;;;;;5084374;28;20308;-60
2023/01/27 17:04:24;;;;;;;9.30;5.78;;;28.40;69.70;;;;;;5083912;28;20043;-58
2023/01/27 17:06:55;;;;;;;12.23;6.65;;;28.50;69.80;;;;;;5083811;28;20082;-57
2023/01/27 17:09:34;;;;;;;10.07;5.80;;;28.50;69.70;;;;;;5083761;28;20032;-56
2023/01/27 17:12:01;;;;;;;10.63;6.57;;;28.50;69.60;;;;;;5083911;28;20028;-56
2023/01/27 17:14:35;;;;;;;11.48;6.18;;;28.50;69.40;;;;;;5083982;28;20040;-56
2023/01/27 17:17:04;;;;;;;9.35;6.07;;;28.60;69.40;;;;;;5084135;28;20062;-59
2023/01/27 17:19:35;;;;;;;10.95;6.60;;;28.60;69.40;;;;;;5084263;28;20039;-63
2023/01/27 17:22:10;;;;;;;15.00;6.87;;;28.60;69.30;;;;;;5083998;28;20308;-63
2023/01/27 17:24:44;;;;;;;9.82;6.63;;;28.60;69.10;;;;;;5084026;28;20088;-58
2023/01/27 17:27:30;;;;;;;11.35;6.22;;;28.70;69.10;;;;;;5083915;28;20260;-55
2023/01/27 17:30:12;;;;;;;9.57;6.78;;;28.70;69.10;;;;;;5084024;28;20033;-55
2023/01/27 17:32:41;;;;;;;10.75;6.57;;;28.70;69.10;;;;;;5083854;28;20028;-57
2023/01/27 17:35:20;;;;;;;10.02;6.70;;;28.70;69.00;;;;;;5083705;28;20029;-56
2023/01/27 17:37:47;;;;;;;11.90;6.70;;;28.70;68.90;;;;;;5083940;28;20088;-54
2023/01/27 17:40:22;;;;;;;11.38;6.68;;;28.80;69.40;;;;;;5082452;28;20211;-53
2023/01/27 17:42:49;;;;;;;10.85;6.63;;;28.80;69.00;;;;;;5083727;28;20049;-53
2023/01/27 17:45:24;;;;;;;11.98;6.90;;;28.80;69.00;;;;;;5083536;28;20036;-56
2023/01/27 17:47:50;;;;;;;12.18;7.05;;;28.80;68.90;;;;;;5083982;28;20051;-54
2023/01/27 17:50:23;;;;;;;9.57;6.65;;;28.90;69.10;;;;;;5083553;28;20039;-54
2023/01/27 17:52:52;;;;;;;10.82;6.50;;;28.90;68.80;;;;;;5083885;28;20020;-56
2023/01/27 17:55:24;;;;;;;10.70;6.75;;;28.90;68.80;;;;;;5083498;28;20034;-55
2023/01/27 17:58:03;;;;;;;12.07;7.07;;;28.90;68.70;;;;;;5083761;28;20083;-53
2023/01/27 18:00:40;;;;;;;15.85;7.43;;;29.00;68.60;;;;;;5082739;28;20067;-59
2023/01/27 18:03:34;;;;;;;10.65;6.82;;;29.00;68.30;;;;;;5083727;28;20318;-57
2023/01/27 18:06:03;;;;;;;19.40;7.60;;;29.00;68.00;;;;;;5080333;28;20055;-60
2023/01/27 18:08:34;;;;;;;12.57;6.90;;;29.10;68.10;;;;;;5083391;28;20024;-59
2023/01/27 18:11:19;;;;;;;11.07;6.85;;;29.10;68.10;;;;;;5083324;28;20024;-57
2023/01/27 18:13:50;;;;;;;11.65;6.95;;;29.10;68.10;;;;;;5083414;28;20013;-56
2023/01/27 18:16:18;;;;;;;11.32;6.80;;;29.10;68.10;;;;;;5083360;28;20044;-57
2023/01/27 18:18:48;;;;;;;10.00;6.80;;;29.10;68.20;;;;;;5084439;28;20023;-60
2023/01/27 18:21:26;;;;;;;15.80;7.18;;;29.10;68.30;;;;;;5087070;28;20048;-61
2023/01/27 18:23:55;;;;;;;12.90;6.70;;;29.10;68.30;;;;;;5087077;28;20016;-60
2023/01/27 18:26:24;;;;;;;12.65;6.53;;;29.10;68.30;;;;;;5086908;28;20201;-57
2023/01/27 18:29:00;;;;;;;10.82;7.20;;;29.10;68.30;;;;;;5087000;28;20020;-55
2023/01/27 18:31:30;;;;;;;14.00;7.15;;;29.10;68.40;;;;;;5086803;28;20029;-53
2023/01/27 18:34:05;;;;;;;12.00;7.75;;;29.10;68.50;;;;;;5086554;28;20016;-54
2023/01/27 18:36:34;;;;;;;13.77;7.70;;;29.10;68.50;;;;;;5086889;28;20205;-55
2023/01/27 18:39:03;;;;;;;11.93;7.28;;;29.10;68.60;;;;;;5087108;28;20405;-54
2023/01/27 18:41:31;;;;;;;13.40;7.47;;;29.10;68.80;;;;;;5086689;28;20085;-56
2023/01/27 18:44:01;;;;;;;14.85;7.95;;;29.10;68.80;;;;;;5086610;28;20064;-53
2023/01/27 18:46:27;;;;;;;13.15;7.95;;;29.10;68.80;;;;;;5086967;28;20024;-57
2023/01/27 18:48:55;;;;;;;17.38;7.78;;;29.10;68.70;;;;;;5086702;28;20099;-57
2023/01/27 18:51:21;;;;;;;16.40;7.68;;;29.10;68.60;;;;;;5086466;28;20065;-59
2023/01/27 18:53:48;;;;;;;20.50;8.35;;;29.10;68.60;;;;;;5086883;28;20254;-61
2023/01/27 18:56:15;;;;;;;16.75;7.20;;;29.20;68.60;;;;;;5086441;28;20079;-58
2023/01/27 18:58:42;;;;;;;16.90;7.47;;;29.20;68.30;;;;;;5086376;28;20024;-54
2023/01/27 19:01:20;;;;;;;14.32;7.10;;;29.20;68.20;;;;;;5086328;28;20209;-57
2023/01/27 19:03:48;;;;;;;16.10;7.88;;;29.30;68.10;;;;;;5086456;28;20032;-58
2023/01/27 19:06:15;;;;;;;12.95;7.25;;;29.30;68.20;;;;;;5086125;28;20016;-57
2023/01/27 19:08:44;;;;;;;10.45;7.45;;;29.30;68.10;;;;;;5086360;28;20091;-57
2023/01/27 19:11:14;;;;;;;13.50;7.53;;;29.30;68.20;;;;;;5086276;28;20201;-57
2023/01/27 19:13:45;;;;;;;11.05;7.55;;;29.30;68.10;;;;;;5086045;28;20290;-57
2023/01/27 19:16:14;;;;;;;11.40;7.38;;;29.30;67.90;;;;;;5086116;28;20020;-58
2023/01/27 19:18:41;;;;;;;12.98;6.68;;;29.30;67.90;;;;;;5086101;28;20043;-56
2023/01/27 19:21:16;;;;;;;12.73;7.32;;;29.30;67.90;;;;;;5086009;28;20021;-56
2023/01/27 19:23:48;;;;;;;16.52;7.85;;;29.40;67.90;;;;;;5086004;28;20026;-58
2023/01/27 19:26:17;;;;;;;12.75;7.95;;;29.40;67.70;;;;;;5085713;28;20024;-56
2023/01/27 19:28:50;;;;;;;12.45;7.72;;;29.30;67.70;;;;;;5085883;28;20024;-61
2023/01/27 19:31:17;;;;;;;12.30;7.65;;;29.40;67.60;;;;;;5085696;28;20020;-60
2023/01/27 19:33:43;;;;;;;11.25;7.40;;;29.40;67.40;;;;;;5085629;28;20082;-64
2023/01/27 19:36:34;;;;;;;13.63;8.35;;;29.40;67.20;;;;;;5085677;28;20084;-63
2023/01/27 19:39:15;;;;;;;12.07;7.38;;;29.40;67.10;;;;;;5085941;28;20032;-62
2023/01/27 19:41:46;;;;;;;10.88;7.20;;;29.40;67.00;;;;;;5085459;28;20212;-62
2023/01/27 19:44:14;;;;;;;11.60;7.72;;;29.40;66.90;;;;;;5085385;28;20097;-63
2023/01/27 19:46:41;;;;;;;9.75;6.85;;;29.40;66.50;;;;;;5085576;28;20029;-55
2023/01/27 19:49:26;;;;;;;10.32;6.88;;;29.40;66.40;;;;;;5085519;28;20216;-57
2023/01/27 19:51:53;;;;;;;8.85;6.63;;;29.50;66.50;;;;;;5085457;28;20036;-59
2023/01/27 19:54:20;;;;;;;15.13;7.20;;;29.40;66.30;;;;;;5085379;28;20062;-59
2023/01/27 19:56:47;;;;;;;11.50;7.07;;;29.50;65.90;;;;;;5085268;28;20043;-58
2023/01/27 19:59:14;;;;;;;15.23;7.15;;;29.50;66.00;;;;;;5085248;28;20016;-57
2023/01/27 20:01:40;;;;;;;19.23;7.25;;;29.50;65.90;;;;;;5085229;28;20024;-57
2023/01/27 20:04:07;;;;;;;10.23;6.97;;;29.50;65.60;;;;;;5084961;28;20096;-55
2023/01/27 20:06:35;;;;;;;13.18;6.97;;;29.50;65.70;;;;;;5085191;28;20067;-56
2023/01/27 20:09:02;;;;;;;14.07;6.72;;;29.50;65.30;;;;;;5085043;28;20316;-54
2023/01/27 20:11:36;;;;;;;12.30;6.75;;;29.50;65.30;;;;;;5084887;28;20204;-56
2023/01/27 20:14:11;;;;;;;9.75;6.40;;;29.50;65.50;;;;;;5084958;28;20031;-55
2023/01/27 20:16:37;;;;;;;15.55;7.30;;;29.50;65.50;;;;;;5084770;28;20219;-56
2023/01/27 20:19:04;;;;;;;11.18;7.32;;;29.50;65.60;;;;;;5084935;28;20051;-56
2023/01/27 20:21:32;;;;;;;12.48;6.70;;;29.50;65.80;;;;;;5084788;28;20028;-54
2023/01/27 20:23:58;;;;;;;13.82;7.07;;;29.50;65.80;;;;;;5084720;28;20205;-56
2023/01/27 20:26:25;;;;;;;10.88;6.70;;;29.60;66.00;;;;;;5084978;28;20339;-56
2023/01/27 20:28:53;;;;;;;9.85;6.80;;;29.60;65.90;;;;;;5084755;28;20017;-56
2023/01/27 20:31:24;;;;;;;10.45;7.10;;;29.60;65.70;;;;;;5084492;28;20040;-54
2023/01/27 20:33:51;;;;;;;13.20;6.90;;;29.60;65.70;;;;;;5084482;28;20050;-57
2023/01/27 20:36:20;;;;;;;12.73;6.65;;;29.60;65.90;;;;;;5084879;28;20293;-58
2023/01/27 20:38:48;;;;;;;9.15;6.68;;;29.60;66.00;;;;;;5084327;28;20024;-57
2023/01/27 20:41:17;;;;;;;10.27;6.72;;;29.60;65.90;;;;;;5083870;28;20309;-55
2023/01/27 20:43:44;;;;;;;15.38;7.55;;;29.60;66.40;;;;;;5084319;28;20052;-57
2023/01/27 20:46:17;;;;;;;9.63;6.65;;;29.60;65.90;;;;;;5084139;28;20044;-56
2023/01/27 20:48:43;;;;;;;9.20;6.68;;;29.60;66.00;;;;;;5084347;28;20070;-56
2023/01/27 20:51:13;;;;;;;11.95;7.03;;;29.60;66.00;;;;;;5084234;28;20082;-55
2023/01/27 20:53:48;;;;;;;9.73;6.55;;;29.60;65.90;;;;;;5084109;28;20039;-54
2023/01/27 20:56:20;;;;;;;11.80;6.72;;;29.60;65.90;;;;;;5084236;28;20020;-55
2023/01/27 20:58:47;;;;;;;11.70;7.20;;;29.60;66.00;;;;;;5084079;28;20087;-55
2023/01/27 21:01:21;;;;;;;11.82;6.80;;;29.60;66.00;;;;;;5084209;28;20021;-54
2023/01/27 21:03:49;;;;;;;11.32;7.18;;;29.60;66.00;;;;;;5084132;28;20070;-54
2023/01/27 21:06:18;;;;;;;9.43;7.00;;;29.60;65.70;;;;;;5083917;28;20025;-56
2023/01/27 21:08:48;;;;;;;13.68;7.47;;;29.60;65.50;;;;;;5084035;28;20028;-54
2023/01/27 21:11:17;;;;;;;13.90;7.80;;;29.60;65.40;;;;;;5083975;28;20028;-57
2023/01/27 21:13:45;;;;;;;10.32;7.38;;;29.60;65.40;;;;;;5083846;28;20026;-56
2023/01/27 21:16:16;;;;;;;13.45;7.47;;;29.60;65.50;;;;;;5083923;28;20027;-61
2023/01/27 21:18:42;;;;;;;13.13;8.30;;;29.60;65.40;;;;;;5083879;28;20028;-60
2023/01/27 21:21:26;;;;;;;12.68;8.57;;;29.60;65.50;;;;;;5083830;28;20021;-61
2023/01/27 21:23:58;;;;;;;12.57;8.25;;;29.60;65.50;;;;;;5084162;28;20311;-61
2023/01/27 21:26:25;;;;;;;14.80;8.75;;;29.60;65.70;;;;;;5083912;28;20212;-54
2023/01/27 21:28:52;;;;;;;13.68;8.32;;;29.60;65.80;;;;;;5083821;28;20093;-54
2023/01/27 21:31:20;;;;;;;17.73;8.48;;;29.60;65.80;;;;;;5083665;28;20051;-58
2023/01/27 21:33:49;;;;;;;15.55;8.52;;;29.60;65.80;;;;;;5083680;28;20036;-55
2023/01/27 21:36:17;;;;;;;11.98;8.38;;;29.60;65.90;;;;;;5083687;28;20326;-56
2023/01/27 21:38:43;;;;;;;15.20;8.90;;;29.60;66.00;;;;;;5083586;28;20020;-56
2023/01/27 21:45:10;;;;;;;13.23;8.77;;;29.60;66.10;;;;;;5083635;28;20074;-58
2023/01/27 21:46:45;;;;;;;16.17;8.32;;;29.60;66.20;;;;;;5083778;28;20032;-57
2023/01/27 21:49:12;;;;;;;13.90;8.93;;;29.50;66.20;;;;;;5083582;28;20097;-57
2023/01/27 21:51:38;;;;;;;13.07;8.15;;;29.50;66.30;;;;;;5083716;28;20248;-56
2023/01/27 21:54:05;;;;;;;16.67;8.18;;;29.50;66.30;;;;;;5085440;28;20018;-60
2023/01/27 21:56:31;;;;;;;16.25;7.93;;;29.50;66.30;;;;;;5087691;28;20066;-53
2023/01/27 21:58:59;;;;;;;16.75;8.00;;;29.50;66.40;;;;;;5085990;28;20028;-58
2023/01/27 22:01:26;;;;;;;17.42;8.77;;;29.50;66.90;;;;;;5087602;28;20025;-60
2023/01/27 22:03:53;;;;;;;19.17;7.88;;;29.50;66.20;;;;;;5083772;28;20025;-60
2023/01/27 22:06:19;;;;;;;16.95;7.78;;;29.50;65.90;;;;;;5076574;28;20019;-60
2023/01/27 22:08:52;;;;;;;18.40;8.48;;;29.50;66.10;;;;;;5087339;28;20078;-59
2023/01/27 22:11:19;;;;;;;15.60;7.95;;;29.50;66.40;;;;;;5087219;28;20023;-59
2023/01/27 22:13:46;;;;;;;14.68;7.53;;;29.50;65.90;;;;;;5087348;28;20063;-58
2023/01/27 22:16:14;;;;;;;17.73;8.27;;;29.50;65.90;;;;;;5086881;28;20017;-62
2023/01/27 22:18:41;;;;;;;16.08;7.30;;;29.50;65.80;;;;;;5087137;28;20033;-56
2023/01/27 22:21:08;;;;;;;20.98;7.97;;;29.50;65.70;;;;;;5087478;28;20078;-56
2023/01/27 22:23:36;;;;;;;25.45;8.10;;;29.50;65.80;;;;;;5086279;28;20036;-57
2023/01/27 22:26:06;;;;;;;30.08;8.82;;;29.40;66.00;;;;;;5086941;28;20024;-59
2023/01/27 22:28:33;;;;;;;27.17;8.38;;;29.40;66.10;;;;;;5087198;28;20309;-60
2023/01/27 22:31:02;;;;;;;22.27;8.20;;;29.40;65.90;;;;;;5087146;28;20030;-56
2023/01/27 22:33:30;;;;;;;15.82;8.13;;;29.40;66.10;;;;;;5087317;28;20051;-56
2023/01/27 22:36:02;;;;;;;20.15;7.43;;;29.40;66.00;;;;;;5087173;28;20036;-55
2023/01/27 22:38:30;;;;;;;19.52;8.00;;;29.40;66.40;;;;;;5087089;28;20063;-52
2023/01/27 22:40:58;;;;;;;26.13;8.88;;;29.40;67.10;;;;;;5086937;28;20338;-56
2023/01/27 22:43:24;;;;;;;27.27;8.70;;;29.30;67.40;;;;;;5087217;28;20040;-56
2023/01/27 22:45:51;;;;;;;33.05;10.07;;;29.30;67.50;;;;;;5087116;28;20025;-56
2023/01/27 22:48:17;;;;;;;30.58;9.95;;;29.30;67.90;;;;;;5087157;28;20142;-56
2023/01/27 22:50:44;;;;;;;36.78;10.82;;;29.20;68.10;;;;;;5086885;28;20012;-54
2023/01/27 22:53:11;;;;;;;36.50;11.60;;;29.20;68.50;;;;;;5087214;28;20062;-61
2023/01/27 22:55:37;;;;;;;52.47;12.05;;;29.20;69.10;;;;;;5086635;28;20042;-56
2023/01/27 22:58:04;;;;;;;60.90;11.80;;;29.10;69.30;;;;;;5086933;28;20040;-53
2023/01/27 23:00:30;;;;;;;54.42;12.35;;;29.10;69.60;;;;;;5086822;28;20063;-55
2023/01/27 23:02:57;;;;;;;51.25;13.65;;;29.10;70.20;;;;;;5087111;28;20029;-56
2023/01/27 23:05:23;;;;;;;62.47;13.38;;;29.10;70.40;;;;;;5086601;28;20028;-57
2023/01/27 23:07:50;;;;;;;134.95;22.90;;;29.00;70.70;;;;;;5087245;28;20020;-52
2023/01/27 23:10:17;;;;;;;117.72;20.35;;;29.00;70.90;;;;;;5086273;28;20017;-55
2023/01/27 23:12:44;;;;;;;118.82;20.35;;;28.90;71.10;;;;;;5086793;28;20040;-55
2023/01/27 23:15:13;;;;;;;135.38;30.65;;;28.90;71.10;;;;;;5086274;28;20024;-55
2023/01/27 23:17:39;;;;;;;137.27;25.85;;;28.90;71.20;;;;;;5087236;28;20051;-54
2023/01/27 23:20:06;;;;;;;125.28;25.60;;;28.90;71.50;;;;;;5086454;28;20235;-56
2023/01/27 23:22:33;;;;;;;135.77;24.80;;;28.90;71.90;;;;;;5086681;28;20034;-54
2023/01/27 23:25:00;;;;;;;155.10;26.35;;;28.80;72.10;;;;;;5086022;28;20032;-53
2023/01/27 23:27:27;;;;;;;132.63;23.85;;;28.80;73.00;;;;;;5085992;28;20100;-58
2023/01/27 23:29:54;;;;;;;169.52;24.63;;;28.80;72.90;;;;;;5086052;28;20074;-55
2023/01/27 23:32:20;;;;;;;149.00;23.27;;;28.70;73.20;;;;;;5086194;28;20028;-54
2023/01/27 23:34:47;;;;;;;132.95;23.10;;;28.70;73.60;;;;;;5086140;28;20032;-54
2023/01/27 23:37:13;;;;;;;131.07;22.08;;;28.70;73.70;;;;;;5085978;28;20056;-54
2023/01/27 23:39:47;;;;;;;134.27;23.75;;;28.70;73.80;;;;;;5085765;28;20051;-53
2023/01/27 23:42:15;;;;;;;127.72;25.88;;;28.70;73.70;;;;;;5085741;28;20053;-53
2023/01/27 23:44:41;;;;;;;113.05;24.48;;;28.70;73.90;;;;;;5086030;28;20016;-56
2023/01/27 23:47:08;;;;;;;96.55;21.63;;;28.70;74.10;;;;;;5085675;28;20039;-54
2023/01/27 23:49:34;;;;;;;99.32;19.75;;;28.60;74.00;;;;;;5085870;28;20024;-56
2023/01/27 23:52:01;;;;;;;75.70;18.52;;;28.60;74.00;;;;;;5081047;28;20363;-57
2023/01/27 23:54:27;;;;;;;89.65;18.40;;;28.60;74.10;;;;;;5066085;28;20032;-58
2023/01/27 23:56:54;;;;;;;76.55;15.95;;;28.60;74.00;;;;;;5065875;28;20025;-63
2023/01/27 23:59:21;;;;;;;69.82;14.80;;;28.50;73.90;;;;;;5080240;28;20024;-57
